Caledon, Canada
Current Conditions -  °F | °C
As of 3:34 PM on Monday 24 Nov 2014 (Local Time) from CYYZ Reporting Station
Rain Showers Rain Showers  
Wind Chill: 15°   Ceiling: 4200
Heat Index: 15°   Visibility: 15mi
Dew Point:   Wind: 24mph
Humidity: 67%   Direction: 220°SW
Pressure: 29.21"   Gusts: 40mph
Location:  43.87°N, 80°W
Report Text: CYYZ 242034Z 22021G35KT 15SM VCSH SCT030 BKN042 15/09 A2921 RMK CF4SC3 SLP891 DENSITY ALT 1500FT
Loading
Personal Weather Stations






























Interactive Weather Map New forecast layout! Learn more

10-Day Weather Forecast

Advertisements
Track Severe Weather on mobile